createdAt,value
2022-10-05T00:03:51.010Z,9.42
2022-10-05T00:09:21.639Z,9.40
2022-10-05T00:14:57.873Z,9.40
2022-10-05T00:20:26.741Z,9.40
2022-10-05T00:26:11.149Z,9.42
2022-10-05T00:31:41.191Z,9.40
2022-10-05T00:37:26.060Z,9.50
2022-10-05T00:43:18.008Z,9.48
2022-10-05T00:49:01.962Z,9.50
2022-10-05T00:54:53.920Z,9.50
2022-10-05T01:00:24.880Z,9.50
2022-10-05T01:06:22.741Z,9.50
2022-10-05T01:12:18.886Z,9.60
2022-10-05T01:18:08.922Z,9.70
2022-10-05T01:24:16.582Z,9.70
2022-10-05T01:30:18.017Z,9.80
2022-10-05T01:36:32.928Z,9.90
2022-10-05T01:42:59.949Z,9.90
2022-10-05T01:48:47.113Z,9.90
2022-10-05T01:54:50.139Z,9.90
2022-10-05T02:00:23.099Z,9.92
2022-10-05T02:06:43.829Z,10.00
2022-10-05T02:12:14.833Z,10.00
2022-10-05T02:17:50.324Z,10.10
2022-10-05T02:23:32.482Z,10.16
2022-10-05T02:29:06.055Z,10.20
2022-10-05T02:34:48.406Z,10.10
2022-10-05T02:41:02.013Z,10.12
2022-10-05T02:47:28.595Z,10.20
2022-10-05T02:53:11.110Z,10.20
2022-10-05T02:59:06.346Z,10.30
2022-10-05T03:04:44.150Z,10.30
2022-10-05T03:10:47.291Z,10.30
2022-10-05T03:16:38.878Z,10.40
2022-10-05T03:22:24.212Z,10.40
2022-10-05T03:28:43.201Z,10.40
2022-10-05T03:35:01.154Z,10.20
2022-10-05T03:41:33.638Z,10.16
2022-10-05T03:47:46.025Z,10.10
2022-10-05T03:53:20.995Z,10.00
2022-10-05T03:59:12.490Z,10.00
2022-10-05T04:05:03.877Z,10.00
2022-10-05T04:10:35.673Z,10.00
2022-10-05T04:16:29.763Z,10.00
2022-10-05T04:22:12.361Z,10.00
2022-10-05T04:27:53.216Z,10.10
2022-10-05T04:33:16.351Z,10.20
2022-10-05T04:39:34.037Z,10.20
2022-10-05T04:45:28.459Z,10.20
2022-10-05T04:51:33.540Z,10.10
2022-10-05T04:57:10.922Z,10.10
2022-10-05T05:03:43.166Z,10.10
2022-10-05T05:09:38.309Z,10.10
2022-10-05T05:15:52.442Z,10.10
2022-10-05T05:21:38.175Z,10.10
2022-10-05T05:27:31.154Z,10.20
2022-10-05T05:33:41.307Z,10.20
2022-10-05T05:40:00.541Z,10.20
2022-10-05T05:45:57.151Z,10.30
2022-10-05T05:51:41.429Z,10.30
2022-10-05T05:57:23.276Z,10.30
2022-10-05T06:03:36.333Z,10.40
2022-10-05T06:10:00.108Z,10.40
2022-10-05T06:16:01.283Z,10.50
2022-10-05T06:21:37.695Z,10.40
2022-10-05T06:27:13.444Z,10.60
2022-10-05T06:32:50.839Z,10.70
2022-10-05T06:38:49.616Z,10.90
2022-10-05T06:44:47.136Z,11.20
2022-10-05T06:51:12.020Z,11.40
2022-10-05T06:57:01.814Z,11.54
2022-10-05T07:02:35.289Z,11.70
2022-10-05T07:09:18.230Z,12.00
2022-10-05T07:15:01.191Z,12.30
2022-10-05T07:21:15.749Z,12.50
2022-10-05T07:26:59.612Z,12.70
2022-10-05T07:32:27.915Z,12.88
2022-10-05T07:38:17.793Z,12.94
2022-10-05T07:44:02.118Z,13.02
2022-10-05T07:49:59.754Z,13.20
2022-10-05T07:55:57.752Z,13.40
2022-10-05T08:01:37.761Z,13.50
2022-10-05T08:07:16.401Z,13.70
2022-10-05T08:13:22.311Z,13.80
2022-10-05T08:18:56.997Z,14.06
2022-10-05T08:25:16.811Z,14.30
2022-10-05T08:30:55.882Z,14.40
2022-10-05T08:37:15.398Z,14.62
2022-10-05T08:43:57.497Z,14.80
2022-10-05T08:50:33.883Z,15.00
2022-10-05T08:57:43.066Z,15.12
2022-10-05T09:04:27.656Z,15.36
2022-10-05T09:10:53.468Z,15.40
2022-10-05T09:17:35.834Z,15.40
2022-10-05T09:23:46.806Z,15.58
2022-10-05T09:30:18.478Z,15.70
2022-10-05T09:37:37.304Z,15.80
2022-10-05T09:44:21.983Z,15.80
2022-10-05T09:51:20.120Z,15.90
2022-10-05T09:58:00.283Z,16.20
2022-10-05T10:04:48.822Z,16.40
2022-10-05T10:10:49.854Z,16.50
2022-10-05T10:17:24.765Z,16.60
2022-10-05T10:24:44.486Z,16.70
2022-10-05T10:31:13.966Z,16.94
2022-10-05T10:37:34.453Z,17.10
2022-10-05T10:44:02.684Z,17.20
2022-10-05T10:50:48.635Z,17.30
2022-10-05T10:58:04.494Z,17.30
2022-10-05T11:05:09.020Z,17.40
2022-10-05T11:11:51.417Z,17.50
2022-10-05T11:18:27.648Z,17.50
2022-10-05T11:24:39.421Z,17.50
2022-10-05T11:30:30.026Z,17.50
2022-10-05T11:36:53.507Z,17.58
2022-10-05T11:43:23.120Z,17.60
2022-10-05T11:49:53.683Z,17.70
2022-10-05T11:55:50.033Z,17.70
2022-10-05T12:01:42.192Z,17.80
2022-10-05T12:07:55.002Z,17.80
2022-10-05T12:14:17.527Z,17.90
2022-10-05T12:19:56.557Z,18.00
2022-10-05T12:25:56.810Z,18.10
2022-10-05T12:32:22.529Z,18.00
2022-10-05T12:38:29.355Z,18.00
2022-10-05T12:45:08.498Z,17.98
2022-10-05T12:50:36.827Z,17.90
2022-10-05T12:57:06.161Z,17.90
2022-10-05T13:03:11.237Z,17.96
2022-10-05T13:09:03.267Z,18.00
2022-10-05T13:14:59.215Z,17.90
2022-10-05T13:20:52.366Z,17.80
2022-10-05T13:26:39.409Z,17.80
2022-10-05T13:32:25.895Z,17.70
2022-10-05T13:38:24.324Z,17.60
2022-10-05T13:44:33.399Z,17.60
2022-10-05T13:50:19.441Z,17.50
2022-10-05T13:55:54.771Z,17.50
2022-10-05T14:01:53.755Z,17.60
2022-10-05T14:08:15.758Z,17.60
